Taunsa Weather



Taunsa's Current Weather

Temprature 40.26o clear sky

clear sky

Rain: 0 %

Min Temprature40.26o
Max Temprature40.26o
Humidity10
Wind Speed1.67 m/h
Sun Rise05:27:41
Sun Set19:00:06
Current Time: 08-May-2021 15:29:02
Lat/Lon: 30.7048, 70.6505




Taunsa's Geo Location



Taunsa's Weather Forecast

Time Overall Temp Min Temp Max Temp Humidity Wind Speed Rain
08-May-2021 (Sat)
17:00:00 clear sky 39.890 39.890 40.350 10 4.09 m/h 0 %
20:00:00 clear sky 37.580 36.540 37.580 11 3.34 m/h 0 %
23:00:00 clear sky 34.430 34.430 34.430 13 2.14 m/h 0 %
09-May-2021 (Sun)
02:00:00 few clouds 30.870 30.870 30.870 24 2.86 m/h 0 %
05:00:00 scattered clouds 29.230 29.230 29.230 30 3.99 m/h 0 %
08:00:00 clear sky 32.760 32.760 32.760 26 5.73 m/h 0 %
11:00:00 scattered clouds 37.900 37.900 37.900 17 4.64 m/h 0 %
14:00:00 few clouds 40.120 40.120 40.120 13 1.33 m/h 0 %
17:00:00 few clouds 40.820 40.820 40.820 11 0.91 m/h 0 %
20:00:00 scattered clouds 37.030 37.030 37.030 15 2.92 m/h 0 %
23:00:00 scattered clouds 34.020 34.020 34.020 20 3.11 m/h 0 %
10-May-2021 (Mon)
02:00:00 scattered clouds 31.850 31.850 31.850 23 2.62 m/h 0 %
05:00:00 few clouds 29.720 29.720 29.720 28 5.01 m/h 0 %
08:00:00 clear sky 31.930 31.930 31.930 27 6.66 m/h 0 %
11:00:00 few clouds 37.610 37.610 37.610 18 5.2 m/h 0 %
14:00:00 scattered clouds 40.930 40.930 40.930 13 3.44 m/h 0 %
17:00:00 scattered clouds 40.550 40.550 40.550 12 6.91 m/h 0 %
20:00:00 scattered clouds 36.710 36.710 36.710 15 6.83 m/h 0 %
23:00:00 scattered clouds 34.460 34.460 34.460 18 3.94 m/h 0 %
11-May-2021 (Tue)
02:00:00 few clouds 32.590 32.590 32.590 20 2.95 m/h 0 %
05:00:00 scattered clouds 30.670 30.670 30.670 23 3.76 m/h 0 %
08:00:00 scattered clouds 36.800 36.800 36.800 15 3.06 m/h 0 %
11:00:00 broken clouds 40.990 40.990 40.990 12 3.98 m/h 0 %
14:00:00 scattered clouds 43.130 43.130 43.130 9 1.76 m/h 0 %
17:00:00 broken clouds 37.790 37.790 37.790 14 4.71 m/h 0 %
20:00:00 broken clouds 35.610 35.610 35.610 16 1.09 m/h 0 %
23:00:00 overcast clouds 34.450 34.450 34.450 16 2.26 m/h 0 %
12-May-2021 (Wed)
02:00:00 broken clouds 32.070 32.070 32.070 24 3.41 m/h 0 %
05:00:00 broken clouds 29.250 29.250 29.250 33 4.72 m/h 0 %
08:00:00 clear sky 30.970 30.970 30.970 31 8.3 m/h 0 %
11:00:00 clear sky 35.510 35.510 35.510 23 6.9 m/h 0 %
14:00:00 clear sky 37.980 37.980 37.980 18 5.33 m/h 0 %
17:00:00 clear sky 38.530 38.530 38.530 16 4.3 m/h 0 %
20:00:00 clear sky 31.850 31.850 31.850 30 6.31 m/h 0 %
23:00:00 light rain 27.070 27.070 27.070 49 2.34 m/h 28 %
13-May-2021 (Thu)
02:00:00 light rain 27.160 27.160 27.160 49 2.33 m/h 78 %
05:00:00 clear sky 26.080 26.080 26.080 52 2.94 m/h 0 %
08:00:00 clear sky 28.220 28.220 28.220 44 6.21 m/h 0 %
11:00:00 clear sky 32.370 32.370 32.370 33 5.72 m/h 0 %
14:00:00 clear sky 34.910 34.910 34.910 27 3.09 m/h 0 %

Famous Cities (60)